KBFL/BFL METAR and TAF weather

Enter ICAO airport designator
Station Type Date Time Source
KBFL METAR 2018/04/23 10:54 UTC NOAA

KBFL 231054Z AUTO 10005KT 10SM CLR 19/05 A2993 RMK AO2 SLP127 T01940050


Station Type Date Time Source
KBFL Decoded METAR 2018/04/23 10:54 UTC NOAA

BAKERSFIELD MEADOWS FIELD, CA, United States (KBFL) 35-26N 119-03W 151M
Apr 23, 2018 - 06:54 AM EDT / 2018.04.23 1054 UTC
Wind: from the E (100 degrees) at 6 MPH (5 KT):0
Visibility: 10 mile(s):0
Sky conditions: clear
Temperature: 66.9 F (19.4 C)
Dew Point: 41.0 F (5.0 C)
Relative Humidity: 38%
Pressure (altimeter): 29.93 in. Hg (1013 hPa)
ob: KBFL 231054Z AUTO 10005KT 10SM CLR 19/05 A2993 RMK AO2 SLP127 T01940050
cycle: 11

Station Type Date Time Source
KBFL TAF 2018/04/23 12:21 UTC NOAA

TAF KBFL 231120Z 2312/2412 VRB04KT P6SM SKC


Example: see airport list